sensor_id;sensor_type;location;lat;lon;timestamp;pressure;altitude;pressure_sealevel;temperature;humidity
71195;BME280;58908;51.426;7.714;2023-08-01T00:01:25;98105.09;;;16.10;100.00
71195;BME280;58908;51.426;7.714;2023-08-01T00:03:51;98093.94;;;16.07;100.00
71195;BME280;58908;51.426;7.714;2023-08-01T00:06:17;98099.78;;;16.10;100.00
71195;BME280;58908;51.426;7.714;2023-08-01T00:08:44;98102.28;;;16.12;100.00
71195;BME280;58908;51.426;7.714;2023-08-01T00:11:11;98095.13;;;16.12;100.00
71195;BME280;58908;51.426;7.714;2023-08-01T00:13:39;98092.31;;;16.14;100.00
71195;BME280;58908;51.426;7.714;2023-08-01T00:16:05;98088.66;;;16.15;100.00
71195;BME280;58908;51.426;7.714;2023-08-01T00:18:33;98091.81;;;16.10;100.00
71195;BME280;58908;51.426;7.714;2023-08-01T00:20:59;98087.81;;;16.14;100.00
71195;BME280;58908;51.426;7.714;2023-08-01T00:23:25;98079.69;;;16.16;100.00
71195;BME280;58908;51.426;7.714;2023-08-01T00:25:52;98082.19;;;16.17;100.00
71195;BME280;58908;51.426;7.714;2023-08-01T00:28:18;98075.03;;;16.18;100.00
71195;BME280;58908;51.426;7.714;2023-08-01T00:30:44;98075.03;;;16.18;100.00
71195;BME280;58908;51.426;7.714;2023-08-01T00:33:11;98066.72;;;16.21;100.00
71195;BME280;58908;51.426;7.714;2023-08-01T00:35:41;98055.91;;;16.14;100.00
71195;BME280;58908;51.426;7.714;2023-08-01T00:38:07;98039.78;;;16.16;100.00
71195;BME280;58908;51.426;7.714;2023-08-01T00:40:33;98039.94;;;16.14;100.00
71195;BME280;58908;51.426;7.714;2023-08-01T00:43:00;98049.56;;;16.15;100.00
71195;BME280;58908;51.426;7.714;2023-08-01T00:45:26;98051.94;;;16.18;100.00
71195;BME280;58908;51.426;7.714;2023-08-01T00:47:55;98043.09;;;16.18;100.00
71195;BME280;58908;51.426;7.714;2023-08-01T00:50:22;98022.47;;;16.20;100.00
71195;BME280;58908;51.426;7.714;2023-08-01T00:52:50;98032.66;;;16.16;100.00
71195;BME280;58908;51.426;7.714;2023-08-01T00:55:17;98033.31;;;16.18;100.00
71195;BME280;58908;51.426;7.714;2023-08-01T00:57:44;98022.66;;;16.18;100.00
71195;BME280;58908;51.426;7.714;2023-08-01T01:00:10;98029.97;;;16.16;100.00
71195;BME280;58908;51.426;7.714;2023-08-01T01:02:37;98018.16;;;16.19;100.00
71195;BME280;58908;51.426;7.714;2023-08-01T01:05:04;98008.38;;;16.19;100.00
71195;BME280;58908;51.426;7.714;2023-08-01T01:07:31;98000.19;;;16.21;100.00
71195;BME280;58908;51.426;7.714;2023-08-01T01:09:58;98016.00;;;16.22;100.00
71195;BME280;58908;51.426;7.714;2023-08-01T01:12:25;98013.34;;;16.22;100.00
71195;BME280;58908;51.426;7.714;2023-08-01T01:14:51;98009.19;;;16.20;100.00
71195;BME280;58908;51.426;7.714;2023-08-01T01:17:18;98011.03;;;16.19;100.00
71195;BME280;58908;51.426;7.714;2023-08-01T01:19:44;98016.00;;;16.22;100.00
71195;BME280;58908;51.426;7.714;2023-08-01T01:22:11;98019.00;;;16.19;100.00
71195;BME280;58908;51.426;7.714;2023-08-01T01:24:38;98016.16;;;16.21;100.00
71195;BME280;58908;51.426;7.714;2023-08-01T01:27:06;97999.38;;;16.20;100.00
71195;BME280;58908;51.426;7.714;2023-08-01T01:29:34;97996.22;;;16.25;100.00
71195;BME280;58908;51.426;7.714;2023-08-01T01:32:01;98006.53;;;16.28;100.00
71195;BME280;58908;51.426;7.714;2023-08-01T01:34:31;98014.97;;;15.99;100.00
71195;BME280;58908;51.426;7.714;2023-08-01T01:36:57;98010.72;;;15.65;100.00
71195;BME280;58908;51.426;7.714;2023-08-01T01:39:25;98004.72;;;15.63;100.00
71195;BME280;58908;51.426;7.714;2023-08-01T01:41:51;98011.72;;;15.56;100.00
71195;BME280;58908;51.426;7.714;2023-08-01T01:44:17;98015.47;;;15.45;100.00
71195;BME280;58908;51.426;7.714;2023-08-01T01:46:45;98003.84;;;15.46;100.00
71195;BME280;58908;51.426;7.714;2023-08-01T01:49:17;98002.66;;;15.41;100.00
71195;BME280;58908;51.426;7.714;2023-08-01T01:51:43;98006.47;;;15.38;100.00
71195;BME280;58908;51.426;7.714;2023-08-01T01:54:09;97984.38;;;15.38;100.00
71195;BME280;58908;51.426;7.714;2023-08-01T01:56:37;97981.69;;;15.30;100.00
71195;BME280;58908;51.426;7.714;2023-08-01T01:59:03;97987.84;;;15.30;100.00
71195;BME280;58908;51.426;7.714;2023-08-01T02:01:29;97992.75;;;15.25;100.00
71195;BME280;58908;51.426;7.714;2023-08-01T02:03:56;98018.50;;;15.25;100.00
71195;BME280;58908;51.426;7.714;2023-08-01T02:06:22;98015.94;;;15.33;100.00
71195;BME280;58908;51.426;7.714;2023-08-01T02:08:48;97981.41;;;15.33;100.00
71195;BME280;58908;51.426;7.714;2023-08-01T02:11:14;97977.41;;;15.37;100.00
71195;BME280;58908;51.426;7.714;2023-08-01T02:13:42;97980.41;;;15.34;100.00
71195;BME280;58908;51.426;7.714;2023-08-01T02:16:08;97992.47;;;15.28;100.00
71195;BME280;58908;51.426;7.714;2023-08-01T02:18:35;97991.63;;;15.28;100.00
71195;BME280;58908;51.426;7.714;2023-08-01T02:21:02;97986.72;;;15.33;100.00
71195;BME280;58908;51.426;7.714;2023-08-01T02:23:28;97987.66;;;15.32;100.00
71195;BME280;58908;51.426;7.714;2023-08-01T02:25:55;97986.19;;;15.37;100.00
71195;BME280;58908;51.426;7.714;2023-08-01T02:28:21;97986.91;;;15.39;100.00
71195;BME280;58908;51.426;7.714;2023-08-01T02:30:48;97987.00;;;15.30;100.00
71195;BME280;58908;51.426;7.714;2023-08-01T02:33:15;97980.69;;;15.31;100.00
71195;BME280;58908;51.426;7.714;2023-08-01T02:35:42;97986.19;;;15.37;100.00
71195;BME280;58908;51.426;7.714;2023-08-01T02:38:08;97989.28;;;15.25;100.00
71195;BME280;58908;51.426;7.714;2023-08-01T02:40:34;97972.72;;;15.31;100.00
71195;BME280;58908;51.426;7.714;2023-08-01T02:43:00;97973.09;;;15.36;100.00
71195;BME280;58908;51.426;7.714;2023-08-01T02:45:27;97978.03;;;15.31;100.00
71195;BME280;58908;51.426;7.714;2023-08-01T02:47:54;97986.31;;;15.28;100.00
71195;BME280;58908;51.426;7.714;2023-08-01T02:50:20;97983.19;;;15.32;100.00
71195;BME280;58908;51.426;7.714;2023-08-01T02:52:47;97989.09;;;15.26;100.00
71195;BME280;58908;51.426;7.714;2023-08-01T02:55:13;97984.63;;;15.27;100.00
71195;BME280;58908;51.426;7.714;2023-08-01T02:57:39;97982.97;;;15.26;100.00
71195;BME280;58908;51.426;7.714;2023-08-01T03:00:06;97980.78;;;15.21;100.00
71195;BME280;58908;51.426;7.714;2023-08-01T03:02:36;97989.38;;;15.15;100.00
71195;BME280;58908;51.426;7.714;2023-08-01T03:05:04;97983.09;;;15.16;100.00
71195;BME280;58908;51.426;7.714;2023-08-01T03:07:30;97978.06;;;15.05;100.00
71195;BME280;58908;51.426;7.714;2023-08-01T03:09:57;97994.16;;;15.04;100.00
71195;BME280;58908;51.426;7.714;2023-08-01T03:12:23;97999.22;;;14.89;100.00
71195;BME280;58908;51.426;7.714;2023-08-01T03:14:49;97993.69;;;14.83;100.00
71195;BME280;58908;51.426;7.714;2023-08-01T03:17:16;97995.69;;;14.81;100.00
71195;BME280;58908;51.426;7.714;2023-08-01T03:19:42;97998.41;;;14.71;100.00
71195;BME280;58908;51.426;7.714;2023-08-01T03:22:10;97992.97;;;14.73;100.00
71195;BME280;58908;51.426;7.714;2023-08-01T03:24:37;97998.59;;;14.70;100.00
71195;BME280;58908;51.426;7.714;2023-08-01T03:27:03;97999.59;;;14.69;100.00
71195;BME280;58908;51.426;7.714;2023-08-01T03:29:30;98001.06;;;14.71;100.00
71195;BME280;58908;51.426;7.714;2023-08-01T03:31:56;98000.59;;;14.76;100.00
71195;BME280;58908;51.426;7.714;2023-08-01T03:34:22;97998.41;;;14.71;100.00
71195;BME280;58908;51.426;7.714;2023-08-01T03:36:48;98010.03;;;14.70;100.00
71195;BME280;58908;51.426;7.714;2023-08-01T03:39:16;98009.22;;;14.70;100.00
71195;BME280;58908;51.426;7.714;2023-08-01T03:41:42;98001.56;;;14.67;100.00
71195;BME280;58908;51.426;7.714;2023-08-01T03:44:09;98004.72;;;14.70;100.00
71195;BME280;58908;51.426;7.714;2023-08-01T03:46:35;98011.53;;;14.73;100.00
71195;BME280;58908;51.426;7.714;2023-08-01T03:49:01;98004.78;;;14.78;100.00
71195;BME280;58908;51.426;7.714;2023-08-01T03:51:27;98002.28;;;14.77;100.00
71195;BME280;58908;51.426;7.714;2023-08-01T03:53:54;98008.75;;;14.74;100.00
71195;BME280;58908;51.426;7.714;2023-08-01T03:56:21;98012.59;;;14.80;100.00
71195;BME280;58908;51.426;7.714;2023-08-01T03:58:47;98004.91;;;14.77;100.00
71195;BME280;58908;51.426;7.714;2023-08-01T04:01:14;98022.00;;;14.74;100.00
71195;BME280;58908;51.426;7.714;2023-08-01T04:03:40;98014.34;;;14.71;100.00
71195;BME280;58908;51.426;7.714;2023-08-01T04:06:06;98015.72;;;14.75;100.00
71195;BME280;58908;51.426;7.714;2023-08-01T04:08:33;98026.69;;;14.80;100.00
71195;BME280;58908;51.426;7.714;2023-08-01T04:10:59;98033.84;;;14.80;100.00
71195;BME280;58908;51.426;7.714;2023-08-01T04:13:27;98026.88;;;14.79;100.00
71195;BME280;58908;51.426;7.714;2023-08-01T04:15:53;98025.03;;;14.79;100.00
71195;BME280;58908;51.426;7.714;2023-08-01T04:18:19;98023.69;;;14.75;100.00
71195;BME280;58908;51.426;7.714;2023-08-01T04:20:46;98037.63;;;14.77;100.00
71195;BME280;58908;51.426;7.714;2023-08-01T04:23:12;98033.84;;;14.80;100.00
71195;BME280;58908;51.426;7.714;2023-08-01T04:25:40;98032.66;;;14.82;100.00
71195;BME280;58908;51.426;7.714;2023-08-01T04:28:06;98029.19;;;14.82;100.00
71195;BME280;58908;51.426;7.714;2023-08-01T04:30:34;98035.03;;;14.85;100.00
71195;BME280;58908;51.426;7.714;2023-08-01T04:33:03;98029.34;;;14.80;100.00
71195;BME280;58908;51.426;7.714;2023-08-01T04:35:29;98029.06;;;14.83;100.00
71195;BME280;58908;51.426;7.714;2023-08-01T04:37:55;98038.97;;;14.81;100.00
71195;BME280;58908;51.426;7.714;2023-08-01T04:40:24;98032.53;;;14.84;100.00
71195;BME280;58908;51.426;7.714;2023-08-01T04:42:51;98044.34;;;14.89;100.00
71195;BME280;58908;51.426;7.714;2023-08-01T04:45:17;98041.34;;;14.84;100.00
71195;BME280;58908;51.426;7.714;2023-08-01T04:47:45;98052.91;;;15.01;100.00
71195;BME280;58908;51.426;7.714;2023-08-01T04:50:11;98047.19;;;14.96;100.00
71195;BME280;58908;51.426;7.714;2023-08-01T04:52:41;98048.66;;;14.90;100.00
71195;BME280;58908;51.426;7.714;2023-08-01T04:55:07;98049.59;;;14.81;100.00
71195;BME280;58908;51.426;7.714;2023-08-01T04:57:34;98049.59;;;14.81;100.00
71195;BME280;58908;51.426;7.714;2023-08-01T05:00:00;98047.91;;;14.80;100.00
71195;BME280;58908;51.426;7.714;2023-08-01T05:02:26;98053.41;;;14.79;100.00
71195;BME280;58908;51.426;7.714;2023-08-01T05:04:54;98048.56;;;14.74;100.00
71195;BME280;58908;51.426;7.714;2023-08-01T05:07:20;98066.28;;;14.74;100.00
71195;BME280;58908;51.426;7.714;2023-08-01T05:09:46;98059.53;;;14.79;100.00
71195;BME280;58908;51.426;7.714;2023-08-01T05:12:13;98056.34;;;14.76;100.00
71195;BME280;58908;51.426;7.714;2023-08-01T05:14:39;98058.72;;;14.79;100.00
71195;BME280;58908;51.426;7.714;2023-08-01T05:17:05;98062.13;;;14.71;100.00
71195;BME280;58908;51.426;7.714;2023-08-01T05:19:32;98065.47;;;14.73;100.00
71195;BME280;58908;51.426;7.714;2023-08-01T05:21:59;98070.06;;;14.71;100.00
71195;BME280;58908;51.426;7.714;2023-08-01T05:24:25;98071.25;;;14.69;100.00
71195;BME280;58908;51.426;7.714;2023-08-01T05:26:52;98083.84;;;14.67;100.00
71195;BME280;58908;51.426;7.714;2023-08-01T05:29:18;98081.19;;;14.67;100.00
71195;BME280;58908;51.426;7.714;2023-08-01T05:31:44;98097.78;;;14.69;100.00
71195;BME280;58908;51.426;7.714;2023-08-01T05:34:11;98091.72;;;14.59;100.00
71195;BME280;58908;51.426;7.714;2023-08-01T05:36:37;98090.50;;;14.53;100.00
71195;BME280;58908;51.426;7.714;2023-08-01T05:39:04;98099.69;;;14.59;100.00
71195;BME280;58908;51.426;7.714;2023-08-01T05:41:31;98093.97;;;14.54;100.00
71195;BME280;58908;51.426;7.714;2023-08-01T05:43:57;98094.59;;;14.48;100.00
71195;BME280;58908;51.426;7.714;2023-08-01T05:46:23;98094.38;;;14.59;100.00
71195;BME280;58908;51.426;7.714;2023-08-01T05:48:50;98092.94;;;14.64;100.00
71195;BME280;58908;51.426;7.714;2023-08-01T05:51:16;98107.03;;;14.65;100.00
71195;BME280;58908;51.426;7.714;2023-08-01T05:53:42;98101.94;;;14.71;100.00
71195;BME280;58908;51.426;7.714;2023-08-01T05:56:10;98101.13;;;14.71;100.00
71195;BME280;58908;51.426;7.714;2023-08-01T05:58:37;98115.28;;;14.79;100.00
71195;BME280;58908;51.426;7.714;2023-08-01T06:01:03;98114.00;;;14.83;100.00
71195;BME280;58908;51.426;7.714;2023-08-01T06:03:30;98113.06;;;14.92;100.00
71195;BME280;58908;51.426;7.714;2023-08-01T06:05:56;98116.16;;;14.88;100.00
71195;BME280;58908;51.426;7.714;2023-08-01T06:08:22;98115.03;;;14.90;100.00
71195;BME280;58908;51.426;7.714;2023-08-01T06:10:48;98120.81;;;14.86;100.00
71195;BME280;58908;51.426;7.714;2023-08-01T06:13:16;98119.59;;;14.80;100.00
71195;BME280;58908;51.426;7.714;2023-08-01T06:15:43;98121.22;;;14.73;100.00
71195;BME280;58908;51.426;7.714;2023-08-01T06:18:09;98118.47;;;14.65;100.00
71195;BME280;58908;51.426;7.714;2023-08-01T06:20:36;98122.34;;;14.71;100.00
71195;BME280;58908;51.426;7.714;2023-08-01T06:23:03;98119.28;;;14.66;100.00
71195;BME280;58908;51.426;7.714;2023-08-01T06:25:29;98123.69;;;14.75;100.00
71195;BME280;58908;51.426;7.714;2023-08-01T06:27:55;98128.09;;;14.84;100.00
71195;BME280;58908;51.426;7.714;2023-08-01T06:30:23;98126.31;;;14.92;100.00
71195;BME280;58908;51.426;7.714;2023-08-01T06:32:49;98129.84;;;14.93;100.00
71195;BME280;58908;51.426;7.714;2023-08-01T06:35:16;98126.09;;;15.03;100.00
71195;BME280;58908;51.426;7.714;2023-08-01T06:37:42;98129.44;;;15.05;100.00
71195;BME280;58908;51.426;7.714;2023-08-01T06:40:09;98129.06;;;15.00;100.00
71195;BME280;58908;51.426;7.714;2023-08-01T06:42:35;98133.59;;;15.08;100.00
71195;BME280;58908;51.426;7.714;2023-08-01T06:45:02;98130.84;;;15.17;100.00
71195;BME280;58908;51.426;7.714;2023-08-01T06:47:29;98130.69;;;15.19;100.00
71195;BME280;58908;51.426;7.714;2023-08-01T06:49:56;98134.78;;;15.13;100.00
71195;BME280;58908;51.426;7.714;2023-08-01T06:52:22;98134.34;;;15.18;100.00
71195;BME280;58908;51.426;7.714;2023-08-01T06:54:48;98140.31;;;15.20;100.00
71195;BME280;58908;51.426;7.714;2023-08-01T06:57:15;98134.13;;;15.11;100.00
71195;BME280;58908;51.426;7.714;2023-08-01T06:59:41;98144.97;;;15.18;100.00
71195;BME280;58908;51.426;7.714;2023-08-01T07:02:07;98133.66;;;15.33;100.00
71195;BME280;58908;51.426;7.714;2023-08-01T07:04:35;98138.16;;;15.33;100.00
71195;BME280;58908;51.426;7.714;2023-08-01T07:07:02;98139.50;;;15.37;100.00
71195;BME280;58908;51.426;7.714;2023-08-01T07:09:29;98146.53;;;15.46;100.00
71195;BME280;58908;51.426;7.714;2023-08-01T07:11:55;98141.03;;;15.47;100.00
71195;BME280;58908;51.426;7.714;2023-08-01T07:14:21;98151.06;;;15.53;100.00
71195;BME280;58908;51.426;7.714;2023-08-01T07:16:48;98149.00;;;15.73;100.00
71195;BME280;58908;51.426;7.714;2023-08-01T07:19:14;98145.06;;;15.85;100.00
71195;BME280;58908;51.426;7.714;2023-08-01T07:21:42;98143.69;;;16.06;100.00
71195;BME280;58908;51.426;7.714;2023-08-01T07:24:10;98151.47;;;16.08;100.00
71195;BME280;58908;51.426;7.714;2023-08-01T07:26:36;98152.31;;;16.08;100.00
71195;BME280;58908;51.426;7.714;2023-08-01T07:29:02;98159.31;;;15.76;100.00
71195;BME280;58908;51.426;7.714;2023-08-01T07:31:29;98163.03;;;15.57;100.00
71195;BME280;58908;51.426;7.714;2023-08-01T07:33:55;98167.88;;;15.62;100.00
71195;BME280;58908;51.426;7.714;2023-08-01T07:36:21;98161.94;;;15.68;100.00
71195;BME280;58908;51.426;7.714;2023-08-01T07:38:49;98166.66;;;15.82;100.00
71195;BME280;58908;51.426;7.714;2023-08-01T07:41:15;98160.22;;;15.92;100.00
71195;BME280;58908;51.426;7.714;2023-08-01T07:43:42;98168.25;;;16.00;100.00
71195;BME280;58908;51.426;7.714;2023-08-01T07:46:08;98169.91;;;16.43;100.00
71195;BME280;58908;51.426;7.714;2023-08-01T07:48:36;98178.75;;;16.43;100.00
71195;BME280;58908;51.426;7.714;2023-08-01T07:51:03;98183.28;;;16.17;100.00
71195;BME280;58908;51.426;7.714;2023-08-01T07:53:30;98180.72;;;16.00;100.00
71195;BME280;58908;51.426;7.714;2023-08-01T07:55:58;98186.34;;;15.97;100.00
71195;BME280;58908;51.426;7.714;2023-08-01T07:58:24;98180.69;;;15.92;100.00
71195;BME280;58908;51.426;7.714;2023-08-01T08:00:51;98184.06;;;16.02;100.00
71195;BME280;58908;51.426;7.714;2023-08-01T08:03:17;98188.25;;;16.12;100.00
71195;BME280;58908;51.426;7.714;2023-08-01T08:05:44;98190.06;;;15.78;100.00
71195;BME280;58908;51.426;7.714;2023-08-01T08:08:10;98192.41;;;15.81;100.00
71195;BME280;58908;51.426;7.714;2023-08-01T08:10:36;98187.31;;;17.10;100.00
71195;BME280;58908;51.426;7.714;2023-08-01T08:13:04;98195.34;;;17.34;100.00
71195;BME280;58908;51.426;7.714;2023-08-01T08:15:30;98193.16;;;16.98;100.00
71195;BME280;58908;51.426;7.714;2023-08-01T08:17:59;98192.16;;;16.99;100.00
71195;BME280;58908;51.426;7.714;2023-08-01T08:20:26;98196.31;;;16.78;100.00
71195;BME280;58908;51.426;7.714;2023-08-01T08:22:52;98202.41;;;18.06;100.00
71195;BME280;58908;51.426;7.714;2023-08-01T08:25:18;98195.56;;;18.11;100.00
71195;BME280;58908;51.426;7.714;2023-08-01T08:27:45;98192.47;;;17.84;100.00
71195;BME280;58908;51.426;7.714;2023-08-01T08:30:12;98187.97;;;17.84;100.00
71195;BME280;58908;51.426;7.714;2023-08-01T08:32:39;98167.97;;;19.33;100.00
71195;BME280;58908;51.426;7.714;2023-08-01T08:35:05;98175.03;;;18.81;100.00
71195;BME280;58908;51.426;7.714;2023-08-01T08:37:31;98171.94;;;17.92;100.00
71195;BME280;58908;51.426;7.714;2023-08-01T08:39:58;98175.94;;;18.65;100.00
71195;BME280;58908;51.426;7.714;2023-08-01T08:42:24;98172.88;;;18.07;100.00
71195;BME280;58908;51.426;7.714;2023-08-01T08:44:53;98172.63;;;18.25;100.00
71195;BME280;58908;51.426;7.714;2023-08-01T08:47:21;98173.66;;;18.16;100.00
71195;BME280;58908;51.426;7.714;2023-08-01T08:49:50;98148.84;;;18.99;100.00
71195;BME280;58908;51.426;7.714;2023-08-01T08:52:17;98146.47;;;19.77;100.00
71195;BME280;58908;51.426;7.714;2023-08-01T08:54:44;98168.16;;;19.31;100.00
71195;BME280;58908;51.426;7.714;2023-08-01T08:57:11;98149.75;;;20.52;100.00
71195;BME280;58908;51.426;7.714;2023-08-01T08:59:38;98141.72;;;20.87;100.00
71195;BME280;58908;51.426;7.714;2023-08-01T09:02:05;98118.09;;;21.18;100.00
71195;BME280;58908;51.426;7.714;2023-08-01T09:04:32;98132.09;;;20.22;100.00
71195;BME280;58908;51.426;7.714;2023-08-01T09:07:00;98136.50;;;20.65;100.00
71195;BME280;58908;51.426;7.714;2023-08-01T09:09:27;98124.56;;;21.24;100.00
71195;BME280;58908;51.426;7.714;2023-08-01T09:11:53;98114.72;;;21.10;100.00
71195;BME280;58908;51.426;7.714;2023-08-01T09:14:21;98135.13;;;19.90;100.00
71195;BME280;58908;51.426;7.714;2023-08-01T09:16:47;98142.53;;;20.67;100.00
71195;BME280;58908;51.426;7.714;2023-08-01T09:19:17;98117.88;;;21.68;100.00
71195;BME280;58908;51.426;7.714;2023-08-01T09:21:45;98113.50;;;21.12;100.00
71195;BME280;58908;51.426;7.714;2023-08-01T09:24:12;98131.72;;;20.25;100.00
71195;BME280;58908;51.426;7.714;2023-08-01T09:26:39;98156.25;;;19.56;100.00
71195;BME280;58908;51.426;7.714;2023-08-01T09:29:05;98175.34;;;18.86;100.00
71195;BME280;58908;51.426;7.714;2023-08-01T09:31:32;98164.81;;;18.84;100.00
71195;BME280;58908;51.426;7.714;2023-08-01T09:34:00;98168.56;;;18.98;100.00
71195;BME280;58908;51.426;7.714;2023-08-01T09:36:27;98182.63;;;18.39;100.00
71195;BME280;58908;51.426;7.714;2023-08-01T09:38:58;98206.19;;;17.65;100.00
71195;BME280;58908;51.426;7.714;2023-08-01T09:41:25;98202.84;;;17.23;100.00
71195;BME280;58908;51.426;7.714;2023-08-01T09:43:51;98203.84;;;17.06;100.00
71195;BME280;58908;51.426;7.714;2023-08-01T09:46:18;98208.78;;;16.77;100.00
71195;BME280;58908;51.426;7.714;2023-08-01T09:48:44;98207.06;;;16.60;100.00
71195;BME280;58908;51.426;7.714;2023-08-01T09:51:11;98201.00;;;18.26;100.00
71195;BME280;58908;51.426;7.714;2023-08-01T09:53:46;98179.97;;;20.02;100.00
71195;BME280;58908;51.426;7.714;2023-08-01T09:56:15;98179.38;;;19.27;100.00
71195;BME280;58908;51.426;7.714;2023-08-01T09:58:42;98162.84;;;20.11;100.00
71195;BME280;58908;51.426;7.714;2023-08-01T10:01:08;98174.41;;;19.24;100.00
71195;BME280;58908;51.426;7.714;2023-08-01T10:03:35;98159.28;;;19.08;100.00
71195;BME280;58908;51.426;7.714;2023-08-01T10:06:01;98137.16;;;20.67;100.00
71195;BME280;58908;51.426;7.714;2023-08-01T10:08:28;98137.72;;;20.12;100.00
71195;BME280;58908;51.426;7.714;2023-08-01T10:10:57;98135.00;;;20.41;100.00
71195;BME280;58908;51.426;7.714;2023-08-01T10:13:24;98146.69;;;20.55;100.00
71195;BME280;58908;51.426;7.714;2023-08-01T10:15:52;98139.34;;;20.78;100.00
71195;BME280;58908;51.426;7.714;2023-08-01T10:18:18;98122.16;;;21.35;100.00
71195;BME280;58908;51.426;7.714;2023-08-01T10:20:45;98112.63;;;21.33;100.00
71195;BME280;58908;51.426;7.714;2023-08-01T10:23:12;98133.78;;;20.79;100.00
71195;BME280;58908;51.426;7.714;2023-08-01T10:25:38;98128.53;;;21.62;100.00
71195;BME280;58908;51.426;7.714;2023-08-01T10:28:05;98093.13;;;21.73;100.00
71195;BME280;58908;51.426;7.714;2023-08-01T10:30:35;98109.44;;;21.16;100.00
71195;BME280;58908;51.426;7.714;2023-08-01T10:33:01;98081.38;;;21.74;100.00
71195;BME280;58908;51.426;7.714;2023-08-01T10:35:31;98095.72;;;21.60;100.00
71195;BME280;58908;51.426;7.714;2023-08-01T10:38:03;98094.28;;;21.36;100.00
71195;BME280;58908;51.426;7.714;2023-08-01T10:40:33;98098.69;;;20.74;100.00
71195;BME280;58908;51.426;7.714;2023-08-01T10:42:59;98100.44;;;20.46;100.00
71195;BME280;58908;51.426;7.714;2023-08-01T10:45:26;98143.38;;;20.17;100.00
71195;BME280;58908;51.426;7.714;2023-08-01T10:48:05;98159.59;;;19.36;100.00
71195;BME280;58908;51.426;7.714;2023-08-01T10:50:32;98233.75;;;18.04;100.00
71195;BME280;58908;51.426;7.714;2023-08-01T10:53:01;98235.69;;;17.47;100.00
71195;BME280;58908;51.426;7.714;2023-08-01T10:55:28;98231.13;;;17.16;100.00
71195;BME280;58908;51.426;7.714;2023-08-01T10:58:03;98243.75;;;16.90;100.00
71195;BME280;58908;51.426;7.714;2023-08-01T11:00:30;98246.88;;;16.70;100.00
71195;BME280;58908;51.426;7.714;2023-08-01T11:02:57;98243.56;;;16.76;100.00
71195;BME280;58908;51.426;7.714;2023-08-01T11:05:24;98239.41;;;16.73;100.00
71195;BME280;58908;51.426;7.714;2023-08-01T11:07:54;98238.22;;;16.76;100.00
71195;BME280;58908;51.426;7.714;2023-08-01T11:10:22;98240.81;;;17.09;100.00
71195;BME280;58908;51.426;7.714;2023-08-01T11:12:49;98246.50;;;17.38;100.00
71195;BME280;58908;51.426;7.714;2023-08-01T11:15:15;98237.31;;;17.32;100.00
71195;BME280;58908;51.426;7.714;2023-08-01T11:17:42;98246.66;;;17.76;100.00
71195;BME280;58908;51.426;7.714;2023-08-01T11:20:11;98237.19;;;17.66;100.00
71195;BME280;58908;51.426;7.714;2023-08-01T11:22:38;98229.94;;;18.61;100.00
71195;BME280;58908;51.426;7.714;2023-08-01T11:25:05;98221.19;;;19.28;100.00
71195;BME280;58908;51.426;7.714;2023-08-01T11:27:31;98214.97;;;20.01;100.00
71195;BME280;58908;51.426;7.714;2023-08-01T11:29:57;98203.16;;;19.95;100.00
71195;BME280;58908;51.426;7.714;2023-08-01T11:32:32;98200.28;;;20.55;100.00
71195;BME280;58908;51.426;7.714;2023-08-01T11:34:58;98184.00;;;20.71;100.00
71195;BME280;58908;51.426;7.714;2023-08-01T11:37:26;98176.91;;;20.63;100.00
71195;BME280;58908;51.426;7.714;2023-08-01T11:39:52;98182.19;;;20.42;100.00
71195;BME280;58908;51.426;7.714;2023-08-01T11:42:19;98182.06;;;19.27;100.00
71195;BME280;58908;51.426;7.714;2023-08-01T11:44:45;98194.47;;;18.97;100.00
71195;BME280;58908;51.426;7.714;2023-08-01T11:47:12;98232.94;;;18.11;100.00
71195;BME280;58908;51.426;7.714;2023-08-01T11:49:39;98242.34;;;17.67;100.00
71195;BME280;58908;51.426;7.714;2023-08-01T11:52:06;98271.28;;;17.14;100.00
71195;BME280;58908;51.426;7.714;2023-08-01T11:54:42;98298.47;;;16.77;100.00
71195;BME280;58908;51.426;7.714;2023-08-01T11:57:09;98304.91;;;16.58;100.00
71195;BME280;58908;51.426;7.714;2023-08-01T11:59:35;98294.72;;;16.46;100.00
71195;BME280;58908;51.426;7.714;2023-08-01T12:02:11;98287.56;;;16.95;100.00
71195;BME280;58908;51.426;7.714;2023-08-01T12:04:45;98297.34;;;17.36;100.00
71195;BME280;58908;51.426;7.714;2023-08-01T12:07:12;98291.81;;;17.38;100.00
71195;BME280;58908;51.426;7.714;2023-08-01T12:09:41;98296.34;;;17.45;100.00
71195;BME280;58908;51.426;7.714;2023-08-01T12:12:16;98297.00;;;17.39;100.00
71195;BME280;58908;51.426;7.714;2023-08-01T12:14:43;98306.78;;;17.31;100.00
71195;BME280;58908;51.426;7.714;2023-08-01T12:17:10;98312.59;;;17.18;100.00
71195;BME280;58908;51.426;7.714;2023-08-01T12:19:36;98317.78;;;17.20;100.00
71195;BME280;58908;51.426;7.714;2023-08-01T12:22:03;98325.09;;;17.26;100.00
71195;BME280;58908;51.426;7.714;2023-08-01T12:24:29;98334.00;;;16.93;100.00
71195;BME280;58908;51.426;7.714;2023-08-01T12:26:57;98335.63;;;16.45;100.00
71195;BME280;58908;51.426;7.714;2023-08-01T12:29:27;98349.00;;;16.10;100.00
71195;BME280;58908;51.426;7.714;2023-08-01T12:31:57;98347.94;;;15.77;100.00
71195;BME280;58908;51.426;7.714;2023-08-01T12:34:23;98346.59;;;15.73;100.00
71195;BME280;58908;51.426;7.714;2023-08-01T12:36:49;98338.69;;;15.64;100.00
71195;BME280;58908;51.426;7.714;2023-08-01T12:39:16;98341.06;;;15.92;100.00
71195;BME280;58908;51.426;7.714;2023-08-01T12:41:42;98338.16;;;16.29;100.00
71195;BME280;58908;51.426;7.714;2023-08-01T12:44:10;98339.09;;;16.71;100.00
71195;BME280;58908;51.426;7.714;2023-08-01T12:46:37;98345.34;;;17.03;100.00
71195;BME280;58908;51.426;7.714;2023-08-01T12:49:04;98355.31;;;16.93;100.00